sensor_id;sensor_type;location;lat;lon;timestamp;pressure;altitude;pressure_sealevel;temperature;humidity
45872;BME280;32333;55.844;-3.210;2023-04-24T00:01:49;98886.58;;;2.95;100.00
45872;BME280;32333;55.844;-3.210;2023-04-24T00:04:16;98886.04;;;2.86;100.00
45872;BME280;32333;55.844;-3.210;2023-04-24T00:06:44;98889.91;;;1.92;100.00
45872;BME280;32333;55.844;-3.210;2023-04-24T00:09:12;98887.90;;;2.64;100.00
45872;BME280;32333;55.844;-3.210;2023-04-24T00:11:40;98882.03;;;2.02;100.00
45872;BME280;32333;55.844;-3.210;2023-04-24T00:14:35;98878.55;;;2.17;100.00
45872;BME280;32333;55.844;-3.210;2023-04-24T00:17:03;98879.19;;;2.70;100.00
45872;BME280;32333;55.844;-3.210;2023-04-24T00:19:30;98877.08;;;1.98;100.00
45872;BME280;32333;55.844;-3.210;2023-04-24T00:21:57;98876.11;;;3.77;100.00
45872;BME280;32333;55.844;-3.210;2023-04-24T00:24:25;98879.29;;;3.52;100.00
45872;BME280;32333;55.844;-3.210;2023-04-24T00:26:53;98876.19;;;3.45;100.00
45872;BME280;32333;55.844;-3.210;2023-04-24T00:29:20;98882.35;;;3.26;100.00
45872;BME280;32333;55.844;-3.210;2023-04-24T00:31:49;98886.63;;;3.35;100.00
45872;BME280;32333;55.844;-3.210;2023-04-24T00:34:16;98884.62;;;2.71;100.00
45872;BME280;32333;55.844;-3.210;2023-04-24T00:36:44;98889.12;;;2.53;100.00
45872;BME280;32333;55.844;-3.210;2023-04-24T00:39:11;98892.72;;;2.20;100.00
45872;BME280;32333;55.844;-3.210;2023-04-24T00:41:39;98890.25;;;2.00;100.00
45872;BME280;32333;55.844;-3.210;2023-04-24T00:44:36;98890.71;;;2.28;100.00
45872;BME280;32333;55.844;-3.210;2023-04-24T00:47:03;98891.44;;;1.68;100.00
45872;BME280;32333;55.844;-3.210;2023-04-24T00:49:31;98889.03;;;1.30;100.00
45872;BME280;32333;55.844;-3.210;2023-04-24T00:51:59;98886.29;;;1.67;100.00
45872;BME280;32333;55.844;-3.210;2023-04-24T00:54:27;98888.67;;;1.29;100.00
45872;BME280;32333;55.844;-3.210;2023-04-24T00:56:55;98892.64;;;1.93;100.00
45872;BME280;32333;55.844;-3.210;2023-04-24T00:59:22;98894.72;;;1.78;100.00
45872;BME280;32333;55.844;-3.210;2023-04-24T01:01:51;98896.11;;;2.08;100.00
45872;BME280;32333;55.844;-3.210;2023-04-24T01:04:19;98899.10;;;1.94;100.00
45872;BME280;32333;55.844;-3.210;2023-04-24T01:06:47;98896.97;;;2.96;100.00
45872;BME280;32333;55.844;-3.210;2023-04-24T01:09:15;98892.43;;;3.30;100.00
45872;BME280;32333;55.844;-3.210;2023-04-24T01:11:43;98892.32;;;2.80;100.00
45872;BME280;32333;55.844;-3.210;2023-04-24T01:14:36;98896.67;;;2.98;100.00
45872;BME280;32333;55.844;-3.210;2023-04-24T01:17:04;98905.38;;;2.29;100.00
45872;BME280;32333;55.844;-3.210;2023-04-24T01:19:31;98907.44;;;3.06;100.00
45872;BME280;32333;55.844;-3.210;2023-04-24T01:22:02;98909.78;;;1.67;100.00
45872;BME280;32333;55.844;-3.210;2023-04-24T01:24:30;98908.92;;;2.12;100.00
45872;BME280;32333;55.844;-3.210;2023-04-24T01:26:59;98913.72;;;2.16;100.00
45872;BME280;32333;55.844;-3.210;2023-04-24T01:29:26;98909.04;;;2.59;100.00
45872;BME280;32333;55.844;-3.210;2023-04-24T01:31:55;98907.93;;;3.25;100.00
45872;BME280;32333;55.844;-3.210;2023-04-24T01:34:23;98910.22;;;3.05;100.00
45872;BME280;32333;55.844;-3.210;2023-04-24T01:36:51;98911.63;;;1.55;100.00
45872;BME280;32333;55.844;-3.210;2023-04-24T01:39:18;98919.59;;;2.35;100.00
45872;BME280;32333;55.844;-3.210;2023-04-24T01:41:46;98921.77;;;2.95;100.00
45872;BME280;32333;55.844;-3.210;2023-04-24T01:44:36;98922.20;;;3.68;100.00
45872;BME280;32333;55.844;-3.210;2023-04-24T01:47:04;98927.13;;;2.88;100.00
45872;BME280;32333;55.844;-3.210;2023-04-24T01:49:33;98929.08;;;3.04;100.00
45872;BME280;32333;55.844;-3.210;2023-04-24T01:52:00;98928.07;;;3.26;100.00
45872;BME280;32333;55.844;-3.210;2023-04-24T01:54:28;98932.31;;;2.73;100.00
45872;BME280;32333;55.844;-3.210;2023-04-24T01:56:55;98935.90;;;3.04;100.00
45872;BME280;32333;55.844;-3.210;2023-04-24T01:59:25;98935.34;;;3.20;100.00
45872;BME280;32333;55.844;-3.210;2023-04-24T02:01:55;98938.42;;;3.07;100.00
45872;BME280;32333;55.844;-3.210;2023-04-24T02:04:22;98937.04;;;3.54;100.00
45872;BME280;32333;55.844;-3.210;2023-04-24T02:06:50;98940.97;;;2.26;100.00
45872;BME280;32333;55.844;-3.210;2023-04-24T02:09:17;98941.83;;;2.64;100.00
45872;BME280;32333;55.844;-3.210;2023-04-24T02:11:45;98934.95;;;3.11;100.00
45872;BME280;32333;55.844;-3.210;2023-04-24T02:14:36;98933.61;;;3.51;100.00
45872;BME280;32333;55.844;-3.210;2023-04-24T02:17:03;98941.48;;;2.93;100.00
45872;BME280;32333;55.844;-3.210;2023-04-24T02:19:31;98941.03;;;3.13;100.00
45872;BME280;32333;55.844;-3.210;2023-04-24T02:21:59;98940.62;;;2.43;100.00
45872;BME280;32333;55.844;-3.210;2023-04-24T02:24:27;98937.24;;;3.75;100.00
45872;BME280;32333;55.844;-3.210;2023-04-24T02:26:54;98941.78;;;3.77;100.00
45872;BME280;32333;55.844;-3.210;2023-04-24T02:29:22;98937.30;;;3.41;100.00
45872;BME280;32333;55.844;-3.210;2023-04-24T02:31:50;98944.76;;;1.50;100.00
45872;BME280;32333;55.844;-3.210;2023-04-24T02:34:17;98949.20;;;3.19;100.00
45872;BME280;32333;55.844;-3.210;2023-04-24T02:36:45;98951.02;;;3.28;100.00
45872;BME280;32333;55.844;-3.210;2023-04-24T02:39:13;98953.91;;;1.66;100.00
45872;BME280;32333;55.844;-3.210;2023-04-24T02:41:41;98951.62;;;3.42;100.00
45872;BME280;32333;55.844;-3.210;2023-04-24T02:44:35;98953.60;;;2.30;100.00
45872;BME280;32333;55.844;-3.210;2023-04-24T02:47:03;98955.84;;;2.09;100.00
45872;BME280;32333;55.844;-3.210;2023-04-24T02:49:30;98955.31;;;1.95;100.00
45872;BME280;32333;55.844;-3.210;2023-04-24T02:51:59;98954.06;;;1.85;100.00
45872;BME280;32333;55.844;-3.210;2023-04-24T02:54:26;98955.82;;;1.52;100.00
45872;BME280;32333;55.844;-3.210;2023-04-24T02:56:54;98964.36;;;1.98;100.00
45872;BME280;32333;55.844;-3.210;2023-04-24T02:59:21;98962.96;;;1.50;100.00
45872;BME280;32333;55.844;-3.210;2023-04-24T03:01:49;98965.35;;;1.16;100.00
45872;BME280;32333;55.844;-3.210;2023-04-24T03:04:17;98965.15;;;2.33;100.00
45872;BME280;32333;55.844;-3.210;2023-04-24T03:06:44;98962.45;;;2.36;100.00
45872;BME280;32333;55.844;-3.210;2023-04-24T03:09:13;98958.10;;;1.86;100.00
45872;BME280;32333;55.844;-3.210;2023-04-24T03:11:40;98962.17;;;0.75;100.00
45872;BME280;32333;55.844;-3.210;2023-04-24T03:14:36;98960.78;;;0.51;100.00
45872;BME280;32333;55.844;-3.210;2023-04-24T03:17:03;98959.81;;;1.53;100.00
45872;BME280;32333;55.844;-3.210;2023-04-24T03:19:31;98957.16;;;1.97;100.00
45872;BME280;32333;55.844;-3.210;2023-04-24T03:22:01;98957.75;;;1.08;100.00
45872;BME280;32333;55.844;-3.210;2023-04-24T03:24:29;98956.02;;;1.81;100.00
45872;BME280;32333;55.844;-3.210;2023-04-24T03:26:56;98956.16;;;1.58;100.00
45872;BME280;32333;55.844;-3.210;2023-04-24T03:29:25;98956.98;;;2.09;100.00
45872;BME280;32333;55.844;-3.210;2023-04-24T03:31:53;98962.77;;;1.53;100.00
45872;BME280;32333;55.844;-3.210;2023-04-24T03:34:20;98959.83;;;1.66;100.00
45872;BME280;32333;55.844;-3.210;2023-04-24T03:36:49;98961.61;;;2.04;100.00
45872;BME280;32333;55.844;-3.210;2023-04-24T03:39:16;98961.09;;;1.30;100.00
45872;BME280;32333;55.844;-3.210;2023-04-24T03:41:44;98955.99;;;1.30;100.00
45872;BME280;32333;55.844;-3.210;2023-04-24T03:44:36;98959.25;;;0.36;100.00
45872;BME280;32333;55.844;-3.210;2023-04-24T03:47:03;98966.71;;;0.53;100.00
45872;BME280;32333;55.844;-3.210;2023-04-24T03:49:31;98965.52;;;0.79;100.00
45872;BME280;32333;55.844;-3.210;2023-04-24T03:51:58;98969.01;;;0.37;100.00
45872;BME280;32333;55.844;-3.210;2023-04-24T03:54:27;98967.83;;;0.63;100.00
45872;BME280;32333;55.844;-3.210;2023-04-24T03:56:54;98972.34;;;0.98;100.00
45872;BME280;32333;55.844;-3.210;2023-04-24T03:59:22;98973.90;;;1.66;100.00
45872;BME280;32333;55.844;-3.210;2023-04-24T04:01:51;98968.99;;;0.63;100.00
45872;BME280;32333;55.844;-3.210;2023-04-24T04:04:19;98972.25;;;0.82;100.00
45872;BME280;32333;55.844;-3.210;2023-04-24T04:06:46;98968.51;;;1.45;100.00
45872;BME280;32333;55.844;-3.210;2023-04-24T04:09:15;98971.23;;;0.85;100.00
45872;BME280;32333;55.844;-3.210;2023-04-24T04:11:43;98975.05;;;2.05;100.00
45872;BME280;32333;55.844;-3.210;2023-04-24T04:14:36;98981.19;;;1.77;100.00
45872;BME280;32333;55.844;-3.210;2023-04-24T04:17:03;98980.06;;;1.76;100.00
45872;BME280;32333;55.844;-3.210;2023-04-24T04:19:31;98985.57;;;1.22;100.00
45872;BME280;32333;55.844;-3.210;2023-04-24T04:21:59;98988.28;;;0.09;100.00
45872;BME280;32333;55.844;-3.210;2023-04-24T04:24:27;98983.31;;;1.89;100.00
45872;BME280;32333;55.844;-3.210;2023-04-24T04:26:55;98991.14;;;1.31;100.00
45872;BME280;32333;55.844;-3.210;2023-04-24T04:29:22;98990.11;;;0.53;100.00
45872;BME280;32333;55.844;-3.210;2023-04-24T04:31:50;98994.41;;;0.67;100.00
45872;BME280;32333;55.844;-3.210;2023-04-24T04:34:18;98993.72;;;0.57;100.00
45872;BME280;32333;55.844;-3.210;2023-04-24T04:36:45;98996.22;;;0.93;100.00
45872;BME280;32333;55.844;-3.210;2023-04-24T04:39:14;98995.17;;;1.95;100.00
45872;BME280;32333;55.844;-3.210;2023-04-24T04:41:41;98996.81;;;1.02;100.00
45872;BME280;32333;55.844;-3.210;2023-04-24T04:44:36;98996.55;;;2.02;100.00
45872;BME280;32333;55.844;-3.210;2023-04-24T04:47:03;98994.51;;;1.62;100.00
45872;BME280;32333;55.844;-3.210;2023-04-24T04:49:31;99002.58;;;1.58;100.00
45872;BME280;32333;55.844;-3.210;2023-04-24T04:51:59;99006.01;;;0.53;100.00
45872;BME280;32333;55.844;-3.210;2023-04-24T04:54:27;99009.17;;;1.92;100.00
45872;BME280;32333;55.844;-3.210;2023-04-24T04:56:54;99009.12;;;1.79;100.00
45872;BME280;32333;55.844;-3.210;2023-04-24T04:59:22;99017.61;;;1.49;100.00
45872;BME280;32333;55.844;-3.210;2023-04-24T05:01:51;99018.80;;;1.08;100.00
45872;BME280;32333;55.844;-3.210;2023-04-24T05:04:18;99018.45;;;0.98;100.00
45872;BME280;32333;55.844;-3.210;2023-04-24T05:06:46;99017.87;;;1.84;100.00
45872;BME280;32333;55.844;-3.210;2023-04-24T05:09:14;99021.54;;;1.17;100.00
45872;BME280;32333;55.844;-3.210;2023-04-24T05:11:42;99019.90;;;1.29;100.00
45872;BME280;32333;55.844;-3.210;2023-04-24T05:14:36;99021.56;;;0.55;100.00
45872;BME280;32333;55.844;-3.210;2023-04-24T05:17:03;99018.62;;;0.69;100.00
45872;BME280;32333;55.844;-3.210;2023-04-24T05:19:31;99020.18;;;1.22;100.00
45872;BME280;32333;55.844;-3.210;2023-04-24T05:21:59;99020.31;;;1.49;100.00
45872;BME280;32333;55.844;-3.210;2023-04-24T05:24:27;99018.12;;;1.44;100.00
45872;BME280;32333;55.844;-3.210;2023-04-24T05:26:54;99024.68;;;1.51;100.00
45872;BME280;32333;55.844;-3.210;2023-04-24T05:29:22;99021.18;;;0.97;100.00
45872;BME280;32333;55.844;-3.210;2023-04-24T05:31:50;99022.45;;;2.34;100.00
45872;BME280;32333;55.844;-3.210;2023-04-24T05:34:17;99023.21;;;2.11;100.00
45872;BME280;32333;55.844;-3.210;2023-04-24T05:36:45;99029.67;;;2.03;100.00
45872;BME280;32333;55.844;-3.210;2023-04-24T05:39:13;99032.16;;;1.57;100.00
45872;BME280;32333;55.844;-3.210;2023-04-24T05:41:41;99034.11;;;1.06;100.00
45872;BME280;32333;55.844;-3.210;2023-04-24T05:44:36;99036.42;;;1.05;100.00
45872;BME280;32333;55.844;-3.210;2023-04-24T05:47:04;99036.96;;;0.99;100.00
45872;BME280;32333;55.844;-3.210;2023-04-24T05:49:31;99040.38;;;0.87;100.00
45872;BME280;32333;55.844;-3.210;2023-04-24T05:52:00;99037.37;;;2.10;100.00
45872;BME280;32333;55.844;-3.210;2023-04-24T05:54:27;99040.18;;;1.83;100.00
45872;BME280;32333;55.844;-3.210;2023-04-24T05:56:55;99037.00;;;2.75;100.00
45872;BME280;32333;55.844;-3.210;2023-04-24T05:59:22;99038.77;;;1.68;100.00
45872;BME280;32333;55.844;-3.210;2023-04-24T06:01:51;99045.05;;;1.82;100.00
45872;BME280;32333;55.844;-3.210;2023-04-24T06:04:18;99046.40;;;1.22;100.00
45872;BME280;32333;55.844;-3.210;2023-04-24T06:06:46;99047.81;;;1.68;100.00
45872;BME280;32333;55.844;-3.210;2023-04-24T06:09:14;99049.94;;;1.83;100.00
45872;BME280;32333;55.844;-3.210;2023-04-24T06:11:42;99052.68;;;2.30;100.00
45872;BME280;32333;55.844;-3.210;2023-04-24T06:14:36;99060.95;;;1.36;100.00
45872;BME280;32333;55.844;-3.210;2023-04-24T06:17:03;99059.04;;;1.90;100.00
45872;BME280;32333;55.844;-3.210;2023-04-24T06:19:31;99060.21;;;1.37;100.00
45872;BME280;32333;55.844;-3.210;2023-04-24T06:21:59;99058.49;;;2.31;100.00
45872;BME280;32333;55.844;-3.210;2023-04-24T06:24:27;99061.04;;;2.23;100.00
45872;BME280;32333;55.844;-3.210;2023-04-24T06:26:55;99072.34;;;1.79;100.00
45872;BME280;32333;55.844;-3.210;2023-04-24T06:29:23;99073.69;;;3.06;100.00
45872;BME280;32333;55.844;-3.210;2023-04-24T06:31:50;99073.14;;;3.02;100.00
45872;BME280;32333;55.844;-3.210;2023-04-24T06:34:18;99078.65;;;2.81;100.00
45872;BME280;32333;55.844;-3.210;2023-04-24T06:36:46;99077.21;;;3.03;100.00
45872;BME280;32333;55.844;-3.210;2023-04-24T06:39:15;99083.76;;;3.20;100.00
45872;BME280;32333;55.844;-3.210;2023-04-24T06:41:42;99080.49;;;3.37;100.00
45872;BME280;32333;55.844;-3.210;2023-04-24T06:44:36;99086.18;;;2.57;100.00
45872;BME280;32333;55.844;-3.210;2023-04-24T06:47:04;99094.89;;;2.79;100.00
45872;BME280;32333;55.844;-3.210;2023-04-24T06:49:31;99092.65;;;2.56;100.00
45872;BME280;32333;55.844;-3.210;2023-04-24T06:51:59;99096.95;;;1.90;100.00
45872;BME280;32333;55.844;-3.210;2023-04-24T06:54:27;99097.01;;;2.59;100.00
45872;BME280;32333;55.844;-3.210;2023-04-24T06:56:55;99098.52;;;2.34;100.00
45872;BME280;32333;55.844;-3.210;2023-04-24T06:59:24;99104.31;;;3.28;100.00
45872;BME280;32333;55.844;-3.210;2023-04-24T07:01:51;99101.11;;;2.68;100.00
45872;BME280;32333;55.844;-3.210;2023-04-24T07:04:19;99108.00;;;2.77;100.00
45872;BME280;32333;55.844;-3.210;2023-04-24T07:06:47;99105.41;;;2.05;100.00
45872;BME280;32333;55.844;-3.210;2023-04-24T07:09:15;99107.82;;;3.28;100.00
45872;BME280;32333;55.844;-3.210;2023-04-24T07:11:42;99105.77;;;2.29;100.00
45872;BME280;32333;55.844;-3.210;2023-04-24T07:14:36;99107.44;;;3.21;100.00
45872;BME280;32333;55.844;-3.210;2023-04-24T07:17:03;99110.58;;;4.02;100.00
45872;BME280;32333;55.844;-3.210;2023-04-24T07:19:31;99108.19;;;3.88;100.00
45872;BME280;32333;55.844;-3.210;2023-04-24T07:21:58;99107.43;;;3.15;100.00
45872;BME280;32333;55.844;-3.210;2023-04-24T07:24:26;99111.63;;;3.27;100.00
45872;BME280;32333;55.844;-3.210;2023-04-24T07:26:54;99110.01;;;4.03;100.00
45872;BME280;32333;55.844;-3.210;2023-04-24T07:29:21;99112.24;;;4.23;100.00
45872;BME280;32333;55.844;-3.210;2023-04-24T07:31:49;99119.15;;;3.98;100.00
45872;BME280;32333;55.844;-3.210;2023-04-24T07:34:16;99118.61;;;3.28;100.00
45872;BME280;32333;55.844;-3.210;2023-04-24T07:36:43;99121.48;;;4.11;100.00
45872;BME280;32333;55.844;-3.210;2023-04-24T07:39:10;99120.82;;;3.71;100.00
45872;BME280;32333;55.844;-3.210;2023-04-24T07:41:37;99121.93;;;3.79;100.00
45872;BME280;32333;55.844;-3.210;2023-04-24T07:44:36;99127.37;;;3.17;100.00
45872;BME280;32333;55.844;-3.210;2023-04-24T07:47:03;99131.33;;;3.90;100.00
45872;BME280;32333;55.844;-3.210;2023-04-24T07:49:31;99127.54;;;3.50;100.00
45872;BME280;32333;55.844;-3.210;2023-04-24T07:51:59;99130.29;;;3.55;100.00
45872;BME280;32333;55.844;-3.210;2023-04-24T07:54:26;99132.65;;;3.22;100.00
45872;BME280;32333;55.844;-3.210;2023-04-24T07:56:53;99131.17;;;3.02;100.00
45872;BME280;32333;55.844;-3.210;2023-04-24T07:59:22;99132.73;;;3.51;100.00
45872;BME280;32333;55.844;-3.210;2023-04-24T08:01:50;99128.69;;;3.79;100.00
45872;BME280;32333;55.844;-3.210;2023-04-24T08:04:18;99131.65;;;3.74;100.00
45872;BME280;32333;55.844;-3.210;2023-04-24T08:06:47;99143.29;;;3.77;100.00
45872;BME280;32333;55.844;-3.210;2023-04-24T08:09:15;99150.14;;;4.12;100.00
45872;BME280;32333;55.844;-3.210;2023-04-24T08:11:43;99144.81;;;4.17;100.00
45872;BME280;32333;55.844;-3.210;2023-04-24T08:14:35;99148.78;;;4.27;100.00
45872;BME280;32333;55.844;-3.210;2023-04-24T08:17:02;99153.93;;;4.44;100.00
45872;BME280;32333;55.844;-3.210;2023-04-24T08:19:30;99141.40;;;4.92;100.00
45872;BME280;32333;55.844;-3.210;2023-04-24T08:21:57;99138.93;;;5.47;100.00
45872;BME280;32333;55.844;-3.210;2023-04-24T08:24:25;99141.22;;;5.05;100.00
45872;BME280;32333;55.844;-3.210;2023-04-24T08:26:52;99143.43;;;4.35;100.00
45872;BME280;32333;55.844;-3.210;2023-04-24T08:29:20;99148.11;;;4.39;100.00
45872;BME280;32333;55.844;-3.210;2023-04-24T08:31:49;99148.84;;;4.91;100.00
45872;BME280;32333;55.844;-3.210;2023-04-24T08:34:16;99150.96;;;4.91;100.00
45872;BME280;32333;55.844;-3.210;2023-04-24T08:36:43;99151.77;;;4.88;100.00
45872;BME280;32333;55.844;-3.210;2023-04-24T08:39:12;99163.41;;;4.61;100.00
45872;BME280;32333;55.844;-3.210;2023-04-24T08:41:41;99164.66;;;5.34;100.00
45872;BME280;32333;55.844;-3.210;2023-04-24T08:44:36;99173.00;;;4.36;100.00
45872;BME280;32333;55.844;-3.210;2023-04-24T08:47:04;99164.68;;;4.90;100.00
45872;BME280;32333;55.844;-3.210;2023-04-24T08:49:36;99176.83;;;5.14;99.54
45872;BME280;32333;55.844;-3.210;2023-04-24T08:52:05;99177.23;;;3.53;100.00
45872;BME280;32333;55.844;-3.210;2023-04-24T08:54:34;99184.24;;;4.05;100.00
45872;BME280;32333;55.844;-3.210;2023-04-24T08:57:03;99181.36;;;4.88;100.00
45872;BME280;32333;55.844;-3.210;2023-04-24T08:59:31;99174.09;;;5.48;97.01
45872;BME280;32333;55.844;-3.210;2023-04-24T09:02:00;99179.56;;;5.47;99.34
45872;BME280;32333;55.844;-3.210;2023-04-24T09:04:29;99179.73;;;6.24;94.71
45872;BME280;32333;55.844;-3.210;2023-04-24T09:06:58;99174.74;;;6.82;90.58
45872;BME280;32333;55.844;-3.210;2023-04-24T09:09:25;99179.04;;;6.59;89.88
45872;BME280;32333;55.844;-3.210;2023-04-24T09:11:53;99177.28;;;6.68;89.93
45872;BME280;32333;55.844;-3.210;2023-04-24T09:14:36;99175.20;;;6.59;91.41
45872;BME280;32333;55.844;-3.210;2023-04-24T09:17:04;99179.07;;;4.81;96.77
45872;BME280;32333;55.844;-3.210;2023-04-24T09:19:31;99173.96;;;5.35;97.29
45872;BME280;32333;55.844;-3.210;2023-04-24T09:21:59;99175.79;;;4.74;97.76
45872;BME280;32333;55.844;-3.210;2023-04-24T09:24:31;99177.19;;;4.54;98.06
45872;BME280;32333;55.844;-3.210;2023-04-24T09:26:59;99184.24;;;4.51;99.99
45872;BME280;32333;55.844;-3.210;2023-04-24T09:29:27;99183.86;;;4.52;98.11
45872;BME280;32333;55.844;-3.210;2023-04-24T09:31:55;99192.53;;;4.28;100.00
45872;BME280;32333;55.844;-3.210;2023-04-24T09:34:25;99189.73;;;3.15;100.00
45872;BME280;32333;55.844;-3.210;2023-04-24T09:36:53;99189.55;;;3.51;100.00
45872;BME280;32333;55.844;-3.210;2023-04-24T09:39:22;99195.39;;;4.06;100.00
45872;BME280;32333;55.844;-3.210;2023-04-24T09:41:53;99195.92;;;4.40;100.00
45872;BME280;32333;55.844;-3.210;2023-04-24T09:44:36;99197.43;;;4.05;100.00
45872;BME280;32333;55.844;-3.210;2023-04-24T09:47:09;99203.27;;;3.83;100.00
45872;BME280;32333;55.844;-3.210;2023-04-24T09:49:36;99205.61;;;3.40;100.00
45872;BME280;32333;55.844;-3.210;2023-04-24T09:52:05;99209.21;;;4.24;100.00
45872;BME280;32333;55.844;-3.210;2023-04-24T09:54:34;99203.34;;;4.19;100.00
45872;BME280;32333;55.844;-3.210;2023-04-24T09:57:02;99208.01;;;3.92;100.00
45872;BME280;32333;55.844;-3.210;2023-04-24T09:59:29;99205.76;;;2.81;100.00
45872;BME280;32333;55.844;-3.210;2023-04-24T10:02:00;99211.26;;;2.92;100.00
45872;BME280;32333;55.844;-3.210;2023-04-24T10:04:28;99216.03;;;3.68;100.00
45872;BME280;32333;55.844;-3.210;2023-04-24T10:06:57;99221.21;;;4.10;100.00
45872;BME280;32333;55.844;-3.210;2023-04-24T10:09:26;99224.15;;;3.52;100.00
45872;BME280;32333;55.844;-3.210;2023-04-24T10:11:54;99216.79;;;3.92;100.00
45872;BME280;32333;55.844;-3.210;2023-04-24T10:14:35;99219.94;;;4.59;100.00
45872;BME280;32333;55.844;-3.210;2023-04-24T10:17:05;99221.12;;;5.44;100.00
45872;BME280;32333;55.844;-3.210;2023-04-24T10:19:35;99237.33;;;5.76;100.00
45872;BME280;32333;55.844;-3.210;2023-04-24T10:22:04;99239.53;;;5.32;100.00
45872;BME280;32333;55.844;-3.210;2023-04-24T10:24:33;99240.03;;;6.04;100.00
45872;BME280;32333;55.844;-3.210;2023-04-24T10:27:02;99244.12;;;6.72;100.00
45872;BME280;32333;55.844;-3.210;2023-04-24T10:29:31;99243.81;;;6.22;100.00
45872;BME280;32333;55.844;-3.210;2023-04-24T10:31:58;99245.34;;;6.68;100.00
45872;BME280;32333;55.844;-3.210;2023-04-24T10:34:26;99242.64;;;6.18;100.00
45872;BME280;32333;55.844;-3.210;2023-04-24T10:36:55;99242.95;;;7.07;100.00
45872;BME280;32333;55.844;-3.210;2023-04-24T10:39:23;99245.31;;;7.37;100.00
45872;BME280;32333;55.844;-3.210;2023-04-24T10:41:53;99243.91;;;9.20;94.71
45872;BME280;32333;55.844;-3.210;2023-04-24T10:44:36;99245.37;;;9.55;86.71
45872;BME280;32333;55.844;-3.210;2023-04-24T10:47:03;99245.91;;;9.30;91.30
45872;BME280;32333;55.844;-3.210;2023-04-24T10:49:32;99248.18;;;8.00;86.26
45872;BME280;32333;55.844;-3.210;2023-04-24T10:52:02;99241.57;;;8.38;83.51
45872;BME280;32333;55.844;-3.210;2023-04-24T10:54:35;99240.77;;;7.48;91.11
45872;BME280;32333;55.844;-3.210;2023-04-24T10:57:34;99251.12;;;7.97;91.91
45872;BME280;32333;55.844;-3.210;2023-04-24T11:00:13;99251.29;;;7.73;92.45
45872;BME280;32333;55.844;-3.210;2023-04-24T11:02:42;99256.41;;;5.96;98.14
45872;BME280;32333;55.844;-3.210;2023-04-24T11:05:10;99258.78;;;7.06;100.00
45872;BME280;32333;55.844;-3.210;2023-04-24T11:08:11;99267.95;;;5.04;100.00
45872;BME280;32333;55.844;-3.210;2023-04-24T11:10:45;99276.32;;;4.26;100.00
45872;BME280;32333;55.844;-3.210;2023-04-24T11:15:10;99287.38;;;4.25;100.00
45872;BME280;32333;55.844;-3.210;2023-04-24T11:17:42;99304.63;;;2.89;100.00
45872;BME280;32333;55.844;-3.210;2023-04-24T11:20:11;99330.78;;;0.67;100.00
45872;BME280;32333;55.844;-3.210;2023-04-24T11:22:39;99340.26;;;0.26;100.00
45872;BME280;32333;55.844;-3.210;2023-04-24T11:25:09;99339.72;;;-0.30;100.00
45872;BME280;32333;55.844;-3.210;2023-04-24T11:27:39;99342.98;;;-0.40;100.00
45872;BME280;32333;55.844;-3.210;2023-04-24T11:30:09;99340.90;;;-0.02;100.00
45872;BME280;32333;55.844;-3.210;2023-04-24T11:32:39;99339.87;;;0.09;100.00
45872;BME280;32333;55.844;-3.210;2023-04-24T11:35:14;99339.70;;;0.55;100.00
45872;BME280;32333;55.844;-3.210;2023-04-24T11:37:43;99338.96;;;0.82;100.00
45872;BME280;32333;55.844;-3.210;2023-04-24T11:40:14;99338.15;;;0.99;100.00
45872;BME280;32333;55.844;-3.210;2023-04-24T11:44:36;99328.93;;;2.11;100.00
45872;BME280;32333;55.844;-3.210;2023-04-24T11:47:04;99323.95;;;1.47;100.00
45872;BME280;32333;55.844;-3.210;2023-04-24T11:49:31;99316.67;;;2.66;100.00
45872;BME280;32333;55.844;-3.210;2023-04-24T11:52:00;99316.78;;;3.15;100.00
45872;BME280;32333;55.844;-3.210;2023-04-24T11:54:28;99313.92;;;3.04;100.00
45872;BME280;32333;55.844;-3.210;2023-04-24T11:56:56;99312.22;;;3.48;100.00
45872;BME280;32333;55.844;-3.210;2023-04-24T11:59:24;99314.53;;;3.81;100.00
45872;BME280;32333;55.844;-3.210;2023-04-24T12:01:52;99317.29;;;4.90;100.00
45872;BME280;32333;55.844;-3.210;2023-04-24T12:04:19;99315.10;;;5.03;100.00
45872;BME280;32333;55.844;-3.210;2023-04-24T12:07:06;99316.59;;;5.18;100.00
45872;BME280;32333;55.844;-3.210;2023-04-24T12:09:42;99311.11;;;4.75;100.00
45872;BME280;32333;55.844;-3.210;2023-04-24T12:14:44;99311.60;;;4.72;100.00
45872;BME280;32333;55.844;-3.210;2023-04-24T12:17:12;99311.76;;;4.86;100.00
45872;BME280;32333;55.844;-3.210;2023-04-24T12:19:45;99314.60;;;3.98;100.00
45872;BME280;32333;55.844;-3.210;2023-04-24T12:22:13;99314.70;;;4.93;100.00
45872;BME280;32333;55.844;-3.210;2023-04-24T12:25:16;99313.70;;;5.14;100.00
45872;BME280;32333;55.844;-3.210;2023-04-24T12:27:44;99314.25;;;4.11;100.00
45872;BME280;32333;55.844;-3.210;2023-04-24T12:30:14;99325.09;;;3.26;100.00
45872;BME280;32333;55.844;-3.210;2023-04-24T12:32:42;99338.08;;;2.35;100.00
45872;BME280;32333;55.844;-3.210;2023-04-24T12:35:11;99347.64;;;3.32;100.00
45872;BME280;32333;55.844;-3.210;2023-04-24T12:37:38;99356.42;;;2.79;100.00
45872;BME280;32333;55.844;-3.210;2023-04-24T12:40:07;99358.43;;;2.54;100.00
45872;BME280;32333;55.844;-3.210;2023-04-24T12:44:36;99354.66;;;2.28;100.00
45872;BME280;32333;55.844;-3.210;2023-04-24T12:47:04;99348.31;;;1.90;100.00
45872;BME280;32333;55.844;-3.210;2023-04-24T12:49:31;99353.04;;;1.90;100.00
45872;BME280;32333;55.844;-3.210;2023-04-24T12:51:59;99359.76;;;2.22;100.00
45872;BME280;32333;55.844;-3.210;2023-04-24T12:54:32;99364.08;;;3.84;100.00
45872;BME280;32333;55.844;-3.210;2023-04-24T12:56:59;99367.82;;;3.17;100.00
45872;BME280;32333;55.844;-3.210;2023-04-24T12:59:27;99374.20;;;3.60;100.00
45872;BME280;32333;55.844;-3.210;2023-04-24T13:01:54;99379.75;;;3.28;100.00
45872;BME280;32333;55.844;-3.210;2023-04-24T13:04:23;99383.98;;;3.72;100.00
45872;BME280;32333;55.844;-3.210;2023-04-24T13:06:50;99391.73;;;3.05;100.00
45872;BME280;32333;55.844;-3.210;2023-04-24T13:09:18;99389.88;;;2.24;100.00
45872;BME280;32333;55.844;-3.210;2023-04-24T13:11:45;99396.66;;;3.07;100.00
45872;BME280;32333;55.844;-3.210;2023-04-24T13:14:36;99398.96;;;2.74;100.00